Time;durP1;ratioP1;P1;durP2;ratioP2;P2;SDS_P1;SDS_P2;PMS_P1;PMS_P2;Temp;Humidity;BMP_temperature;BMP_pressure;BME280_temperature;BME280_humidity;BME280_pressure;Samples;Min_cycle;Max_cycle;Signal;HPM_P1;HPM_P2
2022/01/27 00:04:10;;;;;;;19.00;10.30;;;;;;;-1.44;55.10;101028.50;117171;1186;23664;-51
2022/01/27 00:06:39;;;;;;;18.00;9.50;;;;;;;-1.43;55.16;101030.80;117237;1182;22721;-67
2022/01/27 00:11:48;;;;;;;19.50;9.70;;;;;;;-1.30;55.21;101024.98;117195;1183;23478;-51
2022/01/27 00:14:20;;;;;;;17.90;9.80;;;;;;;-1.24;55.14;101022.02;117246;1184;23467;-69
2022/01/27 00:16:56;;;;;;;17.00;10.00;;;;;;;-1.17;55.10;101021.64;117206;1181;21866;-51
2022/01/27 00:19:25;;;;;;;19.20;9.60;;;;;;;-1.09;55.30;101018.88;117109;1182;22930;-69
2022/01/27 00:21:53;;;;;;;17.30;9.40;;;;;;;-1.04;55.12;101016.20;117296;1182;23000;-61
2022/01/27 00:24:21;;;;;;;20.10;10.30;;;;;;;-0.97;55.42;101020.65;117303;1178;23538;-50
2022/01/27 00:26:50;;;;;;;17.20;9.20;;;;;;;-0.92;55.49;101018.64;117305;1182;23455;-69
2022/01/27 00:29:18;;;;;;;16.10;9.40;;;;;;;-0.86;55.63;101021.64;117295;1182;24159;-51
2022/01/27 00:31:47;;;;;;;19.80;10.00;;;;;;;-0.80;55.37;101020.38;117348;1185;23465;-69
2022/01/27 00:34:16;;;;;;;19.30;10.00;;;;;;;-0.77;55.62;101021.38;117353;1183;23462;-69
2022/01/27 00:36:44;;;;;;;17.20;9.30;;;;;;;-0.73;55.43;101023.08;117047;1186;21860;-50
2022/01/27 00:39:12;;;;;;;20.50;10.00;;;;;;;-0.70;55.38;101024.74;117233;1185;23449;-50
2022/01/27 00:41:40;;;;;;;17.90;9.60;;;;;;;-0.67;55.64;101028.85;117247;1185;23477;-69
2022/01/27 00:44:09;;;;;;;18.20;8.80;;;;;;;-0.63;55.55;101025.23;117209;1181;24148;-69
2022/01/27 00:46:37;;;;;;;18.70;9.40;;;;;;;-0.58;55.39;101023.02;117272;1183;23468;-69
2022/01/27 00:49:05;;;;;;;18.30;9.00;;;;;;;-0.54;55.24;101020.27;117098;1182;23451;-50
2022/01/27 00:51:37;;;;;;;19.40;9.40;;;;;;;-0.56;55.49;101015.17;117280;1181;22964;-50
2022/01/27 00:54:10;;;;;;;19.00;9.20;;;;;;;-0.53;55.58;101013.23;117273;1186;21961;-50
2022/01/27 00:56:48;;;;;;;17.20;9.00;;;;;;;-0.50;55.66;101018.40;117242;1183;23625;-50
2022/01/27 01:02:02;;;;;;;17.60;9.50;;;;;;;-0.43;55.61;101015.05;117275;1185;21898;-69
2022/01/27 01:04:34;;;;;;;15.80;8.50;;;;;;;-0.39;55.42;101014.68;117087;1183;21862;-69
2022/01/27 01:07:04;;;;;;;16.70;8.40;;;;;;;-0.33;55.60;101010.81;117273;1182;23440;-68
2022/01/27 01:15:25;;;;;;;15.80;9.00;;;;;;;-0.21;55.50;101007.17;117106;1182;24165;-68
2022/01/27 01:17:33;;;;;;;14.50;8.20;;;;;;;-0.16;55.55;101012.37;117020;1184;23392;-50
2022/01/27 01:30:59;;;;;;;13.60;8.10;;;;;;;0.02;55.42;101006.55;117312;1183;21896;-69
2022/01/27 01:33:33;;;;;;;15.00;8.40;;;;;;;0.00;55.37;101004.06;117258;1179;21843;-50
2022/01/27 01:36:12;;;;;;;17.40;9.50;;;;;;;-0.06;55.35;101009.35;117272;1186;21899;-49
2022/01/27 01:38:41;;;;;;;13.80;8.70;;;;;;;-0.17;55.19;101009.08;117144;1186;22646;-50
2022/01/27 01:41:10;;;;;;;16.60;8.50;;;;;;;-0.26;55.66;101008.88;117329;1185;22094;-50
2022/01/27 01:43:38;;;;;;;16.50;8.70;;;;;;;-0.34;55.23;101005.75;117264;1182;24161;-68
2022/01/27 01:46:06;;;;;;;16.30;8.50;;;;;;;-0.42;55.01;101004.23;117160;1181;23573;-68
2022/01/27 01:48:34;;;;;;;17.00;8.70;;;;;;;-0.50;55.26;101000.10;117471;1185;23571;-68
2022/01/27 01:51:03;;;;;;;15.50;8.30;;;;;;;-0.58;55.20;100999.60;117187;1183;23457;-50
2022/01/27 01:53:31;;;;;;;13.80;7.40;;;;;;;-0.67;55.06;100995.60;117238;1186;21870;-69
2022/01/27 01:55:59;;;;;;;13.90;8.10;;;;;;;-0.75;55.30;100994.39;117282;1185;22852;-68
2022/01/27 01:58:28;;;;;;;16.00;8.30;;;;;;;-0.81;54.97;100992.22;117048;1182;21859;-69
2022/01/27 02:00:56;;;;;;;14.70;7.60;;;;;;;-0.87;55.16;100990.92;117098;1186;23483;-49
2022/01/27 02:03:25;;;;;;;17.70;9.60;;;;;;;-0.94;55.04;100988.74;117357;1185;22806;-49
2022/01/27 02:05:56;;;;;;;18.00;10.10;;;;;;;-1.00;54.96;100989.49;117238;1181;22924;-49
2022/01/27 02:19:26;;;;;;;16.00;9.20;;;;;;;-1.55;54.60;100991.34;117232;1182;23597;-68
2022/01/27 02:21:58;;;;;;;13.90;7.20;;;;;;;-1.62;54.75;100991.70;117136;1184;21880;-69
2022/01/27 02:24:29;;;;;;;14.90;8.50;;;;;;;-1.68;54.53;100993.29;117069;1186;23484;-68
2022/01/27 02:26:58;;;;;;;13.40;7.40;;;;;;;-1.75;54.69;100999.33;117274;1181;21858;-68
2022/01/27 02:29:26;;;;;;;14.70;7.80;;;;;;;-1.83;54.52;101000.00;117295;1181;22623;-50
2022/01/27 02:31:57;;;;;;;14.00;7.80;;;;;;;-1.91;54.64;101002.54;117306;1181;23515;-50
2022/01/27 02:34:25;;;;;;;12.90;7.10;;;;;;;-1.97;54.70;101004.64;117197;1186;24176;-50
2022/01/27 02:36:53;;;;;;;16.70;8.20;;;;;;;-2.05;54.63;101009.58;117306;1183;23545;-61
2022/01/27 02:39:22;;;;;;;15.50;7.60;;;;;;;-2.20;54.37;101019.16;117297;1182;23965;-49
2022/01/27 02:41:50;;;;;;;17.20;8.10;;;;;;;-2.41;54.32;101020.84;117022;1187;23485;-69
2022/01/27 02:44:30;;;;;;;14.40;7.50;;;;;;;-2.61;54.33;101022.14;117251;1186;21866;-68
2022/01/27 02:46:59;;;;;;;13.30;7.60;;;;;;;-2.78;54.26;101015.25;117161;1178;21858;-68
2022/01/27 02:49:27;;;;;;;16.60;7.70;;;;;;;-2.89;54.40;101013.27;117305;1181;22035;-69
2022/01/27 02:51:55;;;;;;;13.70;6.90;;;;;;;-2.93;54.40;101009.80;117329;1185;21863;-50
2022/01/27 02:54:23;;;;;;;12.60;6.40;;;;;;;-2.97;54.55;101008.75;117293;1184;21871;-68
2022/01/27 02:56:51;;;;;;;15.10;6.60;;;;;;;-2.98;54.71;101005.45;117259;1182;23568;-68
2022/01/27 02:59:21;;;;;;;13.30;6.60;;;;;;;-2.98;54.51;101006.47;117216;1182;23532;-54
2022/01/27 03:01:50;;;;;;;12.10;6.50;;;;;;;-3.03;54.51;101006.70;117335;1182;21837;-49
2022/01/27 03:04:19;;;;;;;14.00;7.20;;;;;;;-3.11;54.43;101003.41;117093;1186;23787;-68
2022/01/27 03:06:47;;;;;;;12.80;6.80;;;;;;;-3.19;54.43;101001.43;117374;1184;21863;-49
2022/01/27 03:09:16;;;;;;;12.20;6.40;;;;;;;-3.25;54.45;101005.35;117273;1186;23053;-68
2022/01/27 03:11:50;;;;;;;12.10;5.80;;;;;;;-3.26;54.69;101002.77;117314;1185;23472;-49
2022/01/27 03:14:20;;;;;;;14.60;6.40;;;;;;;-3.28;54.45;101004.22;117303;1182;22628;-49
2022/01/27 03:16:53;;;;;;;12.30;6.20;;;;;;;-3.30;54.51;101007.70;117121;1184;21861;-68
2022/01/27 03:19:21;;;;;;;10.20;5.80;;;;;;;-3.34;54.43;101007.35;117161;1181;22069;-49
2022/01/27 03:21:49;;;;;;;12.00;6.00;;;;;;;-3.37;54.45;101012.85;117258;1185;21899;-67
2022/01/27 03:24:18;;;;;;;10.00;5.40;;;;;;;-3.39;54.44;101027.12;117255;1186;21857;-58
2022/01/27 03:26:47;;;;;;;13.40;6.70;;;;;;;-3.44;54.34;101034.05;117265;1185;22629;-68
2022/01/27 03:29:17;;;;;;;13.50;7.20;;;;;;;-3.51;54.45;101039.86;117246;1185;24176;-67
2022/01/27 03:31:46;;;;;;;12.60;6.90;;;;;;;-3.58;54.32;101043.42;117296;1185;22625;-49
2022/01/27 03:34:14;;;;;;;16.80;8.30;;;;;;;-3.63;54.39;101048.66;117272;1184;22927;-48
2022/01/27 03:36:43;;;;;;;13.00;6.50;;;;;;;-3.66;54.38;101050.02;117116;1186;23474;-67
2022/01/27 03:39:14;;;;;;;13.60;6.70;;;;;;;-3.69;54.44;101050.52;117257;1185;22853;-67
2022/01/27 03:41:49;;;;;;;17.00;7.90;;;;;;;-3.71;54.60;101052.79;117283;1186;23764;-49
2022/01/27 03:44:18;;;;;;;14.80;6.90;;;;;;;-3.75;54.53;101058.79;117254;1185;21871;-49
2022/01/27 03:46:48;;;;;;;13.60;6.80;;;;;;;-3.80;54.40;101054.73;117317;1185;21924;-68
2022/01/27 03:49:16;;;;;;;15.30;6.70;;;;;;;-3.82;54.45;101050.99;117054;1182;22932;-68
2022/01/27 03:51:45;;;;;;;10.90;6.30;;;;;;;-3.83;54.63;101051.48;117081;1182;21865;-49
2022/01/27 03:54:14;;;;;;;12.80;6.50;;;;;;;-3.82;54.65;101051.33;117086;1188;21880;-68
2022/01/27 03:56:43;;;;;;;13.80;6.90;;;;;;;-3.81;54.60;101052.43;117146;1186;21867;-48
2022/01/27 03:59:11;;;;;;;15.80;7.70;;;;;;;-3.79;54.56;101050.14;117301;1182;23478;-53
2022/01/27 04:01:39;;;;;;;13.50;6.70;;;;;;;-3.79;54.51;101055.65;117293;1179;22773;-48
2022/01/27 04:04:08;;;;;;;16.80;7.30;;;;;;;-3.78;54.48;101054.64;117290;1182;23558;-49
2022/01/27 04:06:39;;;;;;;12.30;6.60;;;;;;;-3.79;54.64;101059.23;117314;1185;21859;-68
2022/01/27 04:09:09;;;;;;;13.70;7.00;;;;;;;-3.80;54.69;101060.23;117298;1183;24066;-68
2022/01/27 04:11:39;;;;;;;14.90;7.10;;;;;;;-3.83;54.53;101063.78;117292;1184;22938;-48
2022/01/27 04:14:08;;;;;;;12.80;6.70;;;;;;;-3.87;54.50;101069.23;117272;1185;23651;-68
2022/01/27 04:16:37;;;;;;;10.40;5.70;;;;;;;-3.90;54.52;101070.12;117255;1184;21970;-49
2022/01/27 04:19:05;;;;;;;13.60;6.50;;;;;;;-3.94;54.44;101071.23;117269;1185;24169;-68
2022/01/27 04:21:33;;;;;;;13.40;6.90;;;;;;;-3.96;54.66;101071.27;116959;1184;23584;-49
2022/01/27 04:24:02;;;;;;;11.50;6.60;;;;;;;-3.96;54.53;101072.84;117165;1185;23449;-68
2022/01/27 04:26:41;;;;;;;13.60;7.30;;;;;;;-3.96;54.53;101070.08;117261;1182;21860;-48
2022/01/27 04:29:09;;;;;;;13.00;6.60;;;;;;;-3.95;54.52;101068.98;117255;1184;21863;-68
2022/01/27 04:31:40;;;;;;;14.40;5.90;;;;;;;-3.93;54.78;101072.35;117257;1184;22648;-68
2022/01/27 04:34:09;;;;;;;13.00;6.20;;;;;;;-3.92;54.61;101068.80;117133;1185;21865;-67
2022/01/27 04:36:39;;;;;;;10.90;5.20;;;;;;;-3.91;54.58;101074.00;117271;1182;23456;-48
2022/01/27 04:39:24;;;;;;;;;;;;;;;-3.88;54.65;101078.94;117343;1179;23574;-48
2022/01/27 04:42:18;;;;;;;10.80;5.80;;;;;;;-3.91;54.52;101084.30;117303;1182;21856;-51
2022/01/27 04:44:58;;;;;;;13.70;6.20;;;;;;;-3.96;54.40;101082.30;117231;1184;22929;-63
2022/01/27 04:47:41;;;;;;;16.00;7.10;;;;;;;-3.99;54.32;101090.34;117284;1186;23326;-68
2022/01/27 04:50:09;;;;;;;12.40;6.30;;;;;;;-4.06;54.33;101093.17;117293;1182;21864;-49
2022/01/27 04:52:43;;;;;;;11.30;5.80;;;;;;;-4.10;54.39;101089.14;117325;1185;21858;-49
2022/01/27 04:55:14;;;;;;;11.80;5.80;;;;;;;-4.12;54.49;101091.80;117208;1185;23700;-49
2022/01/27 04:57:44;;;;;;;14.00;6.90;;;;;;;-4.09;54.57;101096.75;117029;1183;23477;-68
2022/01/27 05:00:16;;;;;;;12.70;6.70;;;;;;;-4.05;54.57;101098.21;117060;1187;21856;-68
2022/01/27 05:02:49;;;;;;;11.30;6.70;;;;;;;-4.03;54.62;101096.28;117066;1185;23591;-67
2022/01/27 05:05:21;;;;;;;13.50;7.50;;;;;;;-3.99;54.63;101098.40;117028;1186;22342;-68
2022/01/27 05:07:57;;;;;;;13.70;7.20;;;;;;;-3.96;54.58;101105.05;117127;1183;23015;-68
2022/01/27 05:10:30;;;;;;;13.50;7.50;;;;;;;-3.96;54.53;101110.71;117048;1184;24158;-68
2022/01/27 05:13:09;;;;;;;12.70;6.80;;;;;;;-3.96;54.47;101111.90;117259;1185;24287;-49
2022/01/27 05:15:43;;;;;;;13.10;7.00;;;;;;;-3.96;54.63;101113.14;117033;1178;21859;-48
2022/01/27 05:18:12;;;;;;;16.50;7.40;;;;;;;-3.93;54.59;101119.45;117284;1185;21862;-49
2022/01/27 05:20:41;;;;;;;12.20;6.80;;;;;;;-3.93;54.59;101117.04;117345;1183;23446;-49
2022/01/27 05:23:09;;;;;;;14.60;7.20;;;;;;;-3.94;54.48;101123.54;117294;1180;21854;-48
2022/01/27 05:25:37;;;;;;;13.80;7.10;;;;;;;-3.94;54.48;101124.58;117302;1185;21859;-68
2022/01/27 05:28:06;;;;;;;15.10;8.00;;;;;;;-3.93;54.70;101125.67;117263;1184;21926;-68
2022/01/27 05:30:35;;;;;;;15.00;7.10;;;;;;;-3.90;54.71;101127.88;117151;1178;24189;-49
2022/01/27 05:33:03;;;;;;;15.00;7.90;;;;;;;-3.85;54.75;101127.65;117098;1187;23953;-49
2022/01/27 05:35:32;;;;;;;14.10;7.50;;;;;;;-3.84;54.64;101126.16;117196;1184;21848;-64
2022/01/27 05:38:05;;;;;;;13.30;7.50;;;;;;;-3.81;54.73;101129.11;117318;1181;21928;-64
2022/01/27 05:40:34;;;;;;;16.60;6.70;;;;;;;-3.74;54.81;101130.38;117022;1186;23016;-65
2022/01/27 05:43:02;;;;;;;19.80;7.20;;;;;;;-3.65;54.90;101133.59;117254;1183;23561;-65
2022/01/27 05:45:30;;;;;;;17.10;7.60;;;;;;;-3.55;54.91;101136.25;117034;1186;24175;-49
2022/01/27 05:47:59;;;;;;;21.30;8.70;;;;;;;-3.42;55.01;101140.91;117233;1184;22596;-49
2022/01/27 05:50:28;;;;;;;17.80;7.60;;;;;;;-3.33;54.93;101141.95;117264;1185;23506;-49
2022/01/27 05:52:56;;;;;;;23.80;10.20;;;;;;;-3.26;54.98;101137.50;117266;1181;22926;-48
2022/01/27 05:55:25;;;;;;;20.70;9.30;;;;;;;-3.18;55.07;101137.10;117352;1183;21857;-62
2022/01/27 05:57:53;;;;;;;22.20;8.60;;;;;;;-3.09;55.11;101134.81;117298;1183;23478;-47
2022/01/27 06:00:22;;;;;;;20.10;8.30;;;;;;;-3.04;55.05;101130.83;117076;1186;22323;-62
2022/01/27 06:02:51;;;;;;;18.00;8.90;;;;;;;-2.97;55.12;101127.95;117029;1185;22929;-48
2022/01/27 06:05:19;;;;;;;19.60;8.50;;;;;;;-2.91;55.11;101128.61;117326;1181;23451;-62
2022/01/27 06:07:48;;;;;;;20.40;8.90;;;;;;;-2.86;55.09;101122.33;117090;1188;22946;-48
2022/01/27 06:10:17;;;;;;;23.20;10.10;;;;;;;-2.78;55.23;101121.41;117010;1185;22661;-48
2022/01/27 06:12:51;;;;;;;18.20;8.70;;;;;;;-2.69;55.22;101113.13;117261;1186;21868;-48
2022/01/27 06:15:20;;;;;;;21.10;8.70;;;;;;;-2.59;55.29;101112.41;117078;1183;24168;-61
2022/01/27 06:17:48;;;;;;;19.70;9.60;;;;;;;-2.50;55.15;101110.49;117293;1181;23481;-48
2022/01/27 06:20:18;;;;;;;19.50;10.30;;;;;;;-2.50;55.05;101110.16;117257;1186;21859;-63
2022/01/27 06:22:47;;;;;;;21.00;10.90;;;;;;;-2.50;55.15;101108.95;117301;1186;21871;-62
2022/01/27 06:25:16;;;;;;;32.30;13.20;;;;;;;-2.49;55.13;101111.73;117012;1186;21862;-63
2022/01/27 06:27:44;;;;;;;44.60;20.60;;;;;;;-2.46;55.11;101110.33;117300;1186;22929;-62
2022/01/27 06:30:13;;;;;;;38.60;18.50;;;;;;;-2.37;55.38;101108.05;117084;1185;24176;-63
2022/01/27 06:32:41;;;;;;;37.80;19.20;;;;;;;-2.25;55.50;101109.70;117073;1183;23577;-63
2022/01/27 06:35:09;;;;;;;40.30;19.40;;;;;;;-2.13;55.47;101111.88;117293;1183;23619;-62
2022/01/27 06:37:39;;;;;;;48.50;22.60;;;;;;;-1.99;55.64;101109.29;117095;1184;23697;-48
2022/01/27 06:40:10;;;;;;;41.30;19.70;;;;;;;-1.86;55.74;101106.36;117233;1184;21864;-62
2022/01/27 06:42:38;;;;;;;42.80;19.20;;;;;;;-1.70;55.85;101107.27;117252;1186;24246;-62
2022/01/27 06:45:07;;;;;;;36.20;17.70;;;;;;;-1.56;55.81;101110.73;117231;1184;22804;-50
2022/01/27 06:47:36;;;;;;;45.30;23.30;;;;;;;-1.43;55.62;101114.98;117145;1186;21864;-66
2022/01/27 06:50:05;;;;;;;41.60;23.20;;;;;;;-1.30;55.75;101111.44;117285;1185;23452;-57
2022/01/27 06:52:34;;;;;;;44.90;21.80;;;;;;;-1.19;55.75;101116.60;117043;1179;23532;-64
2022/01/27 06:55:04;;;;;;;37.80;19.60;;;;;;;-1.04;55.92;101114.89;117309;1186;21990;-67
2022/01/27 06:57:36;;;;;;;38.00;18.30;;;;;;;-0.86;56.10;101108.48;117044;1188;21868;-52
2022/01/27 07:00:06;;;;;;;39.30;18.50;;;;;;;-0.68;56.27;101109.49;117145;1185;22657;-67
2022/01/27 07:02:35;;;;;;;34.80;17.30;;;;;;;-0.48;56.20;101108.64;117047;1185;23472;-52
2022/01/27 07:05:04;;;;;;;27.60;14.90;;;;;;;-0.31;56.39;101104.18;117026;1188;21905;-54
2022/01/27 07:07:34;;;;;;;26.00;15.40;;;;;;;-0.15;56.10;101112.29;117155;1181;21866;-52
2022/01/27 07:10:04;;;;;;;30.40;14.60;;;;;;;0.01;56.39;101111.96;117319;1184;21889;-67
2022/01/27 07:12:34;;;;;;;32.40;15.00;;;;;;;0.16;56.46;101107.73;117274;1185;21865;-53
2022/01/27 07:15:02;;;;;;;25.20;13.60;;;;;;;0.30;56.34;101106.09;116948;1187;23663;-67
2022/01/27 07:17:37;;;;;;;29.80;15.00;;;;;;;0.47;56.49;101102.28;117097;1184;21859;-68
2022/01/27 07:20:09;;;;;;;21.60;13.40;;;;;;;0.62;56.43;101100.47;117085;1186;23704;-67
2022/01/27 07:22:37;;;;;;;23.90;12.40;;;;;;;0.77;56.30;101103.27;117112;1182;24278;-55
2022/01/27 07:25:06;;;;;;;25.80;14.90;;;;;;;0.89;56.34;101098.90;117108;1186;23754;-68
2022/01/27 07:27:35;;;;;;;22.30;12.90;;;;;;;0.99;56.14;101100.16;117086;1183;22058;-55
2022/01/27 07:30:04;;;;;;;23.30;13.40;;;;;;;1.10;56.40;101097.61;117139;1178;22749;-68
2022/01/27 07:32:32;;;;;;;25.70;13.50;;;;;;;1.20;56.23;101099.91;117134;1187;21856;-56
2022/01/27 07:35:01;;;;;;;23.50;13.70;;;;;;;1.30;56.25;101102.01;117203;1183;22925;-68
2022/01/27 07:37:30;;;;;;;32.00;18.40;;;;;;;1.39;56.41;101098.18;117231;1186;21858;-56
2022/01/27 07:39:58;;;;;;;31.30;19.30;;;;;;;1.50;56.28;101092.36;119283;1186;21866;-71
2022/01/27 07:42:26;;;;;;;38.10;24.20;;;;;;;1.60;56.28;101092.54;119190;1186;22256;-70
2022/01/27 07:44:54;;;;;;;21.80;13.30;;;;;;;1.66;56.45;101088.59;118549;1178;22864;-70
2022/01/27 07:47:22;;;;;;;29.00;17.00;;;;;;;1.69;56.18;101092.34;119318;1178;21684;-67
2022/01/27 07:49:50;;;;;;;18.60;10.00;;;;;;;1.79;56.27;101094.24;117643;1185;22889;-70
2022/01/27 07:52:20;;;;;;;20.40;11.50;;;;;;;1.85;55.98;101094.26;117128;1181;23615;-70
2022/01/27 07:54:48;;;;;;;16.20;9.00;;;;;;;1.93;56.14;101093.52;117041;1182;22929;-69
2022/01/27 07:57:17;;;;;;;14.40;9.10;;;;;;;2.00;56.05;101092.67;117090;1182;23474;-53
2022/01/27 07:59:46;;;;;;;18.40;11.20;;;;;;;1.99;55.91;101096.13;117014;1187;21860;-53
2022/01/27 08:02:15;;;;;;;18.60;10.60;;;;;;;1.92;55.88;101094.19;117054;1178;23452;-53
2022/01/27 08:04:45;;;;;;;17.50;10.30;;;;;;;1.93;55.88;101087.12;117198;1179;21865;-53
2022/01/27 08:07:13;;;;;;;12.50;7.80;;;;;;;1.99;55.87;101096.30;117968;1186;22794;-53
2022/01/27 08:09:42;;;;;;;14.80;8.80;;;;;;;2.02;55.89;101091.05;118351;1186;23910;-68
2022/01/27 08:12:10;;;;;;;12.70;7.30;;;;;;;2.02;55.88;101093.11;117272;1184;21899;-67
2022/01/27 08:14:40;;;;;;;13.00;7.80;;;;;;;2.04;55.91;101095.77;117247;1186;23479;-53
2022/01/27 08:17:08;;;;;;;13.50;8.10;;;;;;;2.09;55.89;101096.10;117226;1178;21854;-68
2022/01/27 08:19:40;;;;;;;14.40;8.00;;;;;;;2.08;55.74;101097.30;117258;1183;21854;-54
2022/01/27 08:22:10;;;;;;;12.30;7.30;;;;;;;2.10;55.87;101096.69;117281;1182;24176;-53
2022/01/27 08:24:38;;;;;;;13.80;8.00;;;;;;;2.11;55.70;101100.52;117285;1182;23479;-68
2022/01/27 08:27:09;;;;;;;13.40;8.40;;;;;;;2.15;55.83;101104.30;117263;1186;21861;-68
2022/01/27 08:30:02;;;;;;;11.90;7.00;;;;;;;2.19;55.94;101103.23;117267;1185;23452;-53
2022/01/27 08:32:47;;;;;;;13.00;7.60;;;;;;;2.21;55.77;101108.64;117258;1186;21865;-53
2022/01/27 08:35:19;;;;;;;14.40;7.50;;;;;;;2.24;55.82;101107.18;117232;1176;21868;-68
2022/01/27 08:37:48;;;;;;;13.30;7.60;;;;;;;2.28;55.85;101115.45;117239;1182;23482;-68
2022/01/27 08:40:16;;;;;;;299.20;147.50;;;;;;;2.32;55.84;101119.40;117318;1184;24172;-68
2022/01/27 08:43:05;;;;;;;58.10;29.40;;;;;;;2.34;55.78;101108.40;117243;1182;23535;-53
2022/01/27 08:45:34;;;;;;;40.00;20.10;;;;;;;2.33;55.67;101105.76;117262;1185;21863;-53
2022/01/27 08:48:03;;;;;;;36.80;17.50;;;;;;;2.31;55.62;101096.86;117257;1182;22528;-52
2022/01/27 08:50:31;;;;;;;27.10;15.70;;;;;;;2.29;55.60;101097.11;117075;1180;22925;-52
2022/01/27 08:52:59;;;;;;;28.00;15.90;;;;;;;2.31;55.73;101097.36;117233;1186;23455;-52
2022/01/27 08:55:28;;;;;;;22.70;13.10;;;;;;;2.36;55.80;101101.02;117305;1185;23474;-68
2022/01/27 08:57:57;;;;;;;28.00;15.30;;;;;;;2.42;55.91;101093.74;117318;1176;23468;-68
2022/01/27 09:00:25;;;;;;;25.00;14.50;;;;;;;2.46;55.93;101096.30;117347;1181;22827;-52
2022/01/27 09:02:54;;;;;;;19.90;10.80;;;;;;;2.50;55.86;101097.30;117340;1185;22274;-53
2022/01/27 09:05:22;;;;;;;23.70;13.20;;;;;;;2.55;55.89;101091.90;117280;1182;23089;-66
2022/01/27 09:07:55;;;;;;;31.30;17.60;;;;;;;2.58;55.94;101083.15;117358;1185;23479;-67
2022/01/27 09:10:27;;;;;;;39.70;23.00;;;;;;;2.63;55.89;101082.46;117256;1182;24195;-53
2022/01/27 09:12:55;;;;;;;35.70;21.00;;;;;;;2.69;55.93;101085.23;117039;1183;24175;-52
2022/01/27 09:15:23;;;;;;;29.50;18.40;;;;;;;2.74;55.94;101080.01;117439;1181;21858;-67
2022/01/27 09:18:14;;;;;;;23.90;14.70;;;;;;;2.79;55.91;101081.91;117205;1185;21951;-67
2022/01/27 09:21:07;;;;;;;25.10;15.50;;;;;;;2.79;55.83;101083.98;118688;1185;22954;-52
2022/01/27 09:23:36;;;;;;;26.60;16.40;;;;;;;2.76;55.71;101082.67;117269;1183;21953;-68
2022/01/27 09:26:09;;;;;;;42.20;25.00;;;;;;;2.77;55.67;101084.09;117317;1182;23448;-52
2022/01/27 09:28:38;;;;;;;55.50;30.50;;;;;;;2.80;55.76;101080.89;117275;1182;23549;-53
2022/01/27 09:31:07;;;;;;;42.20;23.40;;;;;;;2.83;55.66;101073.88;117316;1185;21944;-53
2022/01/27 09:33:35;;;;;;;29.40;16.90;;;;;;;2.86;55.69;101070.52;117031;1183;22987;-65
2022/01/27 09:36:11;;;;;;;25.20;14.40;;;;;;;2.86;55.64;101068.44;117201;1183;23554;-53
2022/01/27 09:38:40;;;;;;;19.20;11.40;;;;;;;2.87;55.62;101066.73;117058;1187;21862;-67
2022/01/27 09:41:10;;;;;;;16.40;9.80;;;;;;;2.84;55.53;101067.50;117258;1184;23599;-52
2022/01/27 09:43:39;;;;;;;14.90;9.30;;;;;;;2.79;55.39;101065.96;117236;1185;21854;-66
2022/01/27 09:46:10;;;;;;;15.70;9.20;;;;;;;2.75;55.47;101059.25;116977;1187;21900;-52
2022/01/27 09:48:43;;;;;;;;;;;;;;;2.73;55.67;101055.21;117029;1185;23703;-51
2022/01/27 09:53:57;;;;;;;13.90;8.50;;;;;;;2.68;55.45;101047.42;117268;1184;23683;-66
2022/01/27 09:56:26;;;;;;;14.70;9.00;;;;;;;2.67;55.72;101047.92;116943;1182;22808;-50
2022/01/27 09:59:05;;;;;;;15.80;8.70;;;;;;;2.68;55.54;101043.45;116949;1184;23575;-64
2022/01/27 10:01:35;;;;;;;17.40;9.60;;;;;;;2.64;55.60;101040.21;117320;1185;21986;-51
2022/01/27 10:04:06;;;;;;;15.60;9.40;;;;;;;2.65;55.56;101041.44;117034;1178;21855;-51
2022/01/27 10:06:35;;;;;;;15.20;8.50;;;;;;;2.67;55.74;101040.66;117217;1185;24143;-66
2022/01/27 10:09:16;;;;;;;14.40;8.60;;;;;;;2.68;55.69;101036.35;117265;1178;21967;-51
2022/01/27 10:11:47;;;;;;;;;;;;;;;2.72;55.79;101039.21;117352;1185;21849;-50
2022/01/27 10:14:37;;;;;;;13.40;7.60;;;;;;;2.74;55.61;101032.52;117032;1186;22613;-66
2022/01/27 10:17:12;;;;;;;12.40;7.80;;;;;;;2.70;55.52;101029.45;117021;1184;23573;-51
2022/01/27 10:19:54;;;;;;;14.70;8.30;;;;;;;2.62;55.66;101026.80;117223;1181;23848;-66
2022/01/27 10:22:23;;;;;;;15.50;9.00;;;;;;;2.58;55.71;101016.47;117261;1179;21857;-60
2022/01/27 10:25:00;;;;;;;14.00;8.80;;;;;;;2.58;55.82;101015.05;117088;1178;22917;-66
2022/01/27 10:32:57;;;;;;;16.60;9.90;;;;;;;2.59;55.63;101006.44;117273;1185;21904;-50
2022/01/27 10:35:27;;;;;;;17.30;9.30;;;;;;;2.61;55.54;100999.58;116926;1187;24178;-50
2022/01/27 10:38:10;;;;;;;19.60;11.20;;;;;;;2.63;55.67;101001.55;117263;1185;23521;-65
2022/01/27 10:40:41;;;;;;;17.90;10.90;;;;;;;2.63;55.73;100998.24;117198;1178;23489;-50
2022/01/27 10:43:11;;;;;;;21.90;13.30;;;;;;;2.65;55.59;100996.41;117004;1182;24018;-64
2022/01/27 10:46:00;;;;;;;20.00;12.40;;;;;;;2.66;55.56;100996.60;117260;1185;22992;-65
2022/01/27 10:48:32;;;;;;;18.80;12.30;;;;;;;2.67;55.43;100992.79;117226;1185;21878;-64
2022/01/27 10:51:06;;;;;;;20.00;12.80;;;;;;;2.68;55.53;100991.61;117284;1189;21861;-50
2022/01/27 10:53:45;;;;;;;21.00;12.50;;;;;;;2.62;55.62;100991.10;117293;1185;21868;-50
2022/01/27 10:56:18;;;;;;;21.60;13.00;;;;;;;2.62;55.74;100990.60;117026;1184;23555;-50
2022/01/27 10:58:47;;;;;;;21.20;12.10;;;;;;;2.65;55.85;100987.39;117190;1183;24911;-50
2022/01/27 11:01:26;;;;;;;18.30;11.30;;;;;;;2.64;55.81;100991.52;118323;1184;23452;-50
2022/01/27 11:03:56;;;;;;;19.10;10.80;;;;;;;2.60;55.69;100986.36;117355;1185;21911;-64
2022/01/27 11:06:26;;;;;;;238.50;112.20;;;;;;;2.58;55.82;100989.77;117081;1187;21858;-65
2022/01/27 11:08:56;;;;;;;52.40;29.40;;;;;;;2.56;55.89;100987.63;117250;1178;24176;-65
2022/01/27 11:11:30;;;;;;;24.90;14.60;;;;;;;2.54;55.74;100983.41;117226;1185;24332;-50
2022/01/27 11:13:59;;;;;;;14.90;9.50;;;;;;;2.51;55.82;100981.27;117033;1184;23547;-66
2022/01/27 11:16:38;;;;;;;13.20;8.20;;;;;;;2.51;55.84;100976.92;117328;1185;22836;-50
2022/01/27 11:19:22;;;;;;;13.80;8.60;;;;;;;2.52;55.84;100977.46;117271;1182;21923;-65
2022/01/27 11:21:59;;;;;;;12.80;7.30;;;;;;;2.46;55.72;100971.41;117007;1185;22725;-50
2022/01/27 11:27:37;;;;;;;14.40;10.10;;;;;;;2.55;55.64;100969.08;117026;1187;22917;-49
2022/01/27 11:30:13;;;;;;;12.40;7.20;;;;;;;2.49;55.73;100961.80;117238;1185;23616;-66
2022/01/27 11:32:49;;;;;;;11.90;7.00;;;;;;;2.48;55.88;100965.55;117266;1185;22632;-66
2022/01/27 11:35:22;;;;;;;18.10;9.70;;;;;;;2.49;55.98;100965.40;117205;1183;23579;-62
2022/01/27 11:37:55;;;;;;;14.50;9.60;;;;;;;2.55;55.96;100967.69;117009;1178;24135;-51
2022/01/27 11:40:53;;;;;;;;;;;;;;;2.53;55.69;100962.92;117135;1182;21811;-66
2022/01/27 11:43:26;;;;;;;12.50;6.70;;;;;;;2.42;55.57;100959.15;117086;1185;23542;-52
2022/01/27 11:45:54;;;;;;;10.40;5.80;;;;;;;2.32;55.43;100953.13;119339;1179;22238;-67
2022/01/27 11:48:25;;;;;;;12.40;6.70;;;;;;;2.23;55.44;100947.31;117377;1177;21858;-51
2022/01/27 11:51:14;;;;;;;14.20;7.50;;;;;;;2.18;55.65;100943.01;119405;1182;21775;-54
2022/01/27 11:53:43;;;;;;;19.40;10.00;;;;;;;2.16;55.75;100945.39;119422;1185;21802;-67
2022/01/27 11:56:15;;;;;;;15.40;8.60;;;;;;;2.21;55.64;100944.15;117264;1182;21845;-66
2022/01/27 11:58:48;;;;;;;17.30;9.90;;;;;;;2.23;55.62;100941.08;117300;1185;22947;-51
2022/01/27 12:01:21;;;;;;;15.30;9.00;;;;;;;2.24;55.63;100937.46;117218;1185;23641;-67
2022/01/27 12:04:05;;;;;;;18.00;11.20;;;;;;;2.19;55.52;100932.15;117247;1186;21856;-67
2022/01/27 12:06:47;;;;;;;16.10;9.10;;;;;;;2.18;55.69;100929.15;117306;1182;23453;-51
2022/01/27 12:09:19;;;;;;;15.40;10.90;;;;;;;2.17;55.57;100929.66;117301;1181;21859;-68
2022/01/27 12:12:02;;;;;;;16.20;10.20;;;;;;;2.14;55.61;100929.37;117287;1185;21878;-51
2022/01/27 12:14:33;;;;;;;14.80;9.60;;;;;;;2.12;55.55;100928.97;117276;1186;22243;-51
2022/01/27 12:17:07;;;;;;;16.10;8.80;;;;;;;2.09;55.70;100925.77;117093;1185;21859;-67